หน้าหลัก
METAR-TAF:

METAR-TAF

ท่าอากาศยาน :

Le Touquet, ฝรั่งเศส

ละติจูด: 50-30-53N, ลองจิจูด: 001-37-39E, ความสูง: 6 ม.

การสังเกตสภาพอากาศปัจจุบัน

รายงานได้ทำขึ้นเมื่อ 25 นาทีที่แล้ว ณ เวลา 03:00 UTC
ลม 1 นอตจากทิศทางซึ่งแปรผันได้
อุณหภูมิ 10°C
ความชื้น 93%
ความกดอากาศ 1018 hPa
ทัศนวิสัย 10 กม. หรือมากกว่า
มีเมฆเป็นส่วนมากเว้นเป็นระยะที่ความสูง 2300 ฟุต
มีเมฆเป็นส่วนมากเว้นเป็นระยะที่ความสูง 3800 ฟุต
มีเมฆเป็นส่วนมากเว้นเป็นระยะที่ความสูง 4600 ฟุต

METAR: LFAT 130300Z AUTO VRB01KT 9999 BKN023 BKN038 BKN046 10/09 Q1018

เวลา: 05:25 (03:25 UTC)

การพยากรณ์

รายงานได้ทำขึ้นเมื่อ 13 ชั่วโมงและ 25 นาทีที่แล้ว ณ เวลา 14:00 UTC
การพยากรณ์มีผลตั้งแต่วันที่ 12 ณ เวลา 15 UTC จนถึงวันที่ 12 ณ เวลา 24 UTC
ลม 5 นอตจากตะวันตก/ตะวันตกเฉียงเหนือ
ทัศนวิสัย 10 กม. หรือมากกว่า
ไม่มีเมฆต่ำกว่า 1,500 ม. และไม่มีเมฆคิวมูโลนิมบัส

TAF: LFAT 121400Z 1215/1224 30005KT CAVOK

สังเกตการณ์สภาพอากาศและพยากรณ์อากาศของสนามบินมากกว่า 4000 แห่ง (รายงาน METAR และ TAF).

สถานีที่ดูได้จะแสดงไว้ด้วยจุดสีเหลืองและสีแดงบนแผนที่.

เลื่อนเมาส์ไปเหนือจุดเพื่อดูชื่อสถานี.

แล้วคลิกเพื่อดูสังเกตการณ์และการพยากรณ์สภาพอากาศ.

ในการเปลี่ยนแผนที่: คลิกที่ปุ่มสีเขียวที่มีกากบาทสีดำเพื่อซูมเข้า; ที่ปุ่มสีเขียวที่มีขีดเพื่อซูมออก; หรือที่ลูกศรสีเขียวเพื่อไปยังแผนที่ที่อยู่ติดกัน.


METAR-TAF: